Time;durP1;ratioP1;P1;durP2;ratioP2;P2;SDS_P1;SDS_P2;PMS_P1;PMS_P2;Temp;Humidity;BMP_temperature;BMP_pressure;BME280_temperature;BME280_humidity;BME280_pressure;Samples;Min_cycle;Max_cycle;Signal;HPM_P1;HPM_P2
2023/07/07 06:32:09;;;;;;;14.32;5.63;;;;;;;17.74;65.17;101827.03;5141552;27;20182;-62
2023/07/07 06:34:34;;;;;;;8.80;4.88;;;;;;;17.91;62.96;101821.22;5108945;28;20024;-62
2023/07/07 06:37:00;;;;;;;11.40;4.88;;;;;;;18.00;66.43;101830.41;5109384;28;20502;-62
2023/07/07 06:39:29;;;;;;;8.50;4.57;;;;;;;17.96;67.43;101822.69;5107446;28;20076;-63
2023/07/07 06:41:56;;;;;;;12.85;4.93;;;;;;;18.05;69.99;101824.66;5109279;28;20051;-62
2023/07/07 06:44:22;;;;;;;11.73;4.70;;;;;;;18.16;65.62;101830.91;5108756;28;20030;-62
2023/07/07 06:46:47;;;;;;;9.15;4.63;;;;;;;18.34;63.15;101831.25;5109079;28;20028;-62
2023/07/07 06:49:13;;;;;;;12.32;5.53;;;;;;;18.50;62.97;101836.28;5106998;28;20032;-63
2023/07/07 06:51:38;;;;;;;9.27;5.28;;;;;;;18.58;62.51;101838.34;5108234;28;20081;-63
2023/07/07 06:54:04;;;;;;;8.02;4.88;;;;;;;18.59;63.74;101834.69;5106888;28;20032;-62
2023/07/07 06:56:29;;;;;;;9.45;4.45;;;;;;;18.74;62.61;101836.16;5107937;28;20020;-62
2023/07/07 06:58:55;;;;;;;7.97;4.85;;;;;;;18.84;59.77;101838.94;5106750;28;20031;-61
2023/07/07 07:01:20;;;;;;;5.53;3.88;;;;;;;19.02;63.10;101837.41;5108932;28;20047;-61
2023/07/07 07:03:46;;;;;;;8.43;3.78;;;;;;;19.09;61.51;101845.00;5107301;28;20027;-61
2023/07/07 07:06:12;;;;;;;9.50;3.95;;;;;;;19.19;61.56;101843.25;5108787;28;20056;-60
2023/07/07 07:08:37;;;;;;;13.25;3.92;;;;;;;19.09;63.90;101836.91;5108163;28;20074;-60
2023/07/07 07:11:03;;;;;;;8.80;4.10;;;;;;;19.43;58.29;101843.88;5108428;28;20479;-60
2023/07/07 07:13:28;;;;;;;10.18;4.20;;;;;;;19.37;58.89;101841.69;5107443;28;20055;-61
2023/07/07 07:15:55;;;;;;;8.43;4.00;;;;;;;19.56;57.94;101849.09;5107337;28;20081;-61
2023/07/07 07:18:21;;;;;;;7.28;3.53;;;;;;;19.63;59.44;101852.13;5106064;28;20098;-61
2023/07/07 07:20:56;;;;;;;10.52;3.90;;;;;;;19.77;56.25;101849.13;5106533;28;20457;-61
2023/07/07 07:23:22;;;;;;;8.30;3.60;;;;;;;19.77;58.74;101845.59;5088821;28;20027;-61
2023/07/07 07:25:50;;;;;;;9.52;3.63;;;;;;;19.92;56.98;101852.34;5106968;28;20495;-61
2023/07/07 07:28:15;;;;;;;7.18;3.10;;;;;;;20.03;54.26;101843.31;5089135;28;20080;-61
2023/07/07 07:30:42;;;;;;;8.32;3.28;;;;;;;20.08;55.67;101852.72;5103245;28;20056;-61
2023/07/07 07:33:14;;;;;;;5.40;3.15;;;;;;;20.16;54.61;101850.22;5105755;28;20043;-61
2023/07/07 07:35:40;;;;;;;6.40;3.28;;;;;;;20.25;56.09;101851.25;5106247;28;20115;-61
2023/07/07 07:38:06;;;;;;;6.03;3.80;;;;;;;20.39;55.36;101859.00;5107473;28;20027;-61
2023/07/07 07:40:32;;;;;;;6.60;3.03;;;;;;;20.50;53.94;101851.75;5106971;28;20035;-60
2023/07/07 07:42:57;;;;;;;5.10;3.53;;;;;;;20.54;51.36;101845.13;5095139;28;20119;-61
2023/07/07 07:45:23;;;;;;;8.70;3.47;;;;;;;20.64;53.76;101848.72;5092153;28;20407;-61
2023/07/07 07:47:50;;;;;;;7.25;2.95;;;;;;;20.79;54.42;101850.03;5090940;28;20224;-61
2023/07/07 07:50:16;;;;;;;6.60;3.20;;;;;;;20.99;54.13;101856.34;5101159;28;20122;-61
2023/07/07 07:52:42;;;;;;;6.30;2.65;;;;;;;21.06;52.82;101854.78;5092818;28;20119;-61
2023/07/07 07:55:08;;;;;;;3.78;2.63;;;;;;;21.11;52.23;101859.75;5090304;28;20229;-61
2023/07/07 07:57:33;;;;;;;7.35;3.20;;;;;;;21.13;52.78;101855.06;5093615;28;20048;-61
2023/07/07 07:59:58;;;;;;;7.05;2.88;;;;;;;21.25;52.03;101856.66;5074203;28;20055;-61
2023/07/07 08:02:24;;;;;;;7.00;3.17;;;;;;;21.27;51.64;101853.81;5093739;28;20036;-61
2023/07/07 08:04:50;;;;;;;10.35;3.20;;;;;;;21.37;51.31;101854.69;5090326;28;20484;-61
2023/07/07 08:07:15;;;;;;;6.22;3.10;;;;;;;21.49;52.56;101847.28;5092957;28;20036;-61
2023/07/07 08:09:40;;;;;;;9.35;3.58;;;;;;;21.62;51.40;101857.78;5089433;28;20024;-61
2023/07/07 08:12:16;;;;;;;6.18;3.55;;;;;;;21.68;51.21;101868.06;5092193;28;20036;-61
2023/07/07 08:14:42;;;;;;;7.03;3.15;;;;;;;21.80;51.10;101858.78;5092233;28;20086;-61
2023/07/07 08:17:10;;;;;;;7.50;3.15;;;;;;;21.88;51.77;101863.47;5090349;28;20052;-61
2023/07/07 08:19:37;;;;;;;4.75;2.83;;;;;;;21.95;51.36;101857.31;5090904;28;20047;-61
2023/07/07 08:22:08;;;;;;;6.78;3.30;;;;;;;22.05;50.58;101857.28;5091003;28;20111;-67
2023/07/07 08:24:43;;;;;;;5.55;2.88;;;;;;;22.13;49.76;101867.41;5107051;28;20020;-63
2023/07/07 08:27:10;;;;;;;4.65;2.95;;;;;;;22.36;48.65;101868.78;5093104;28;20028;-63
2023/07/07 08:29:37;;;;;;;10.20;3.38;;;;;;;22.36;51.65;101862.50;5093070;28;20016;-63
2023/07/07 08:32:03;;;;;;;8.60;3.47;;;;;;;22.64;50.65;101858.78;5091967;28;20123;-59
2023/07/07 08:34:29;;;;;;;4.97;2.78;;;;;;;22.62;51.33;101854.53;5092689;28;20153;-59
2023/07/07 08:36:59;;;;;;;5.80;3.40;;;;;;;22.74;48.53;101861.47;5092017;28;20040;-59
2023/07/07 08:39:26;;;;;;;4.80;3.00;;;;;;;22.74;47.28;101860.63;5091158;28;20086;-60
2023/07/07 08:41:55;;;;;;;31.17;4.38;;;;;;;22.76;47.57;101859.44;5091857;28;20056;-59
2023/07/07 08:44:23;;;;;;;3.85;2.58;;;;;;;22.76;45.63;101864.84;5093019;28;20130;-60
2023/07/07 08:47:09;;;;;;;3.92;2.50;;;;;;;22.97;47.18;101863.75;5072868;28;20024;-60
2023/07/07 08:49:44;;;;;;;7.63;2.75;;;;;;;23.03;45.35;101852.28;5072695;28;20035;-61
2023/07/07 08:52:26;;;;;;;5.65;2.80;;;;;;;23.02;45.22;101862.28;5088441;28;20032;-59
2023/07/07 08:55:05;;;;;;;4.45;2.72;;;;;;;23.06;45.01;101857.41;5071240;28;20031;-60
2023/07/07 08:57:32;;;;;;;;;;;;;;;23.20;45.47;101862.31;5079599;28;20035;-60
2023/07/07 09:00:18;;;;;;;4.18;2.45;;;;;;;23.33;44.30;101862.78;5074337;28;20331;-60
2023/07/07 09:02:59;;;;;;;10.85;2.97;;;;;;;23.32;46.05;101855.66;5092791;28;20024;-61
2023/07/07 09:05:32;;;;;;;6.82;2.70;;;;;;;23.55;44.80;101866.88;5092464;28;20035;-59
2023/07/07 09:08:22;;;;;;;3.75;2.42;;;;;;;23.69;44.79;101860.03;5092885;28;20050;-59
2023/07/07 09:10:51;;;;;;;5.57;2.85;;;;;;;23.70;43.26;101863.63;5092622;28;20085;-60
2023/07/07 09:13:28;;;;;;;5.28;2.75;;;;;;;23.76;42.71;101857.56;5092871;28;20130;-59
2023/07/07 09:16:20;;;;;;;7.68;2.53;;;;;;;23.80;42.06;101867.13;5092433;28;20018;-61
2023/07/07 09:18:51;;;;;;;3.35;2.60;;;;;;;23.85;41.79;101861.19;5092601;28;20536;-59
2023/07/07 09:21:33;;;;;;;5.50;2.72;;;;;;;23.94;41.86;101849.34;5092188;28;20027;-60
2023/07/07 09:24:09;;;;;;;6.68;2.85;;;;;;;24.11;42.78;101853.88;5090526;28;20043;-70
2023/07/07 09:26:36;;;;;;;5.40;2.70;;;;;;;24.22;40.33;101858.22;5092604;28;20024;-66
2023/07/07 09:29:07;;;;;;;5.30;2.65;;;;;;;24.31;38.57;101850.94;5092117;28;20103;-71
2023/07/07 09:31:43;;;;;;;8.27;2.97;;;;;;;24.38;39.32;101841.94;5090824;28;20470;-71
2023/07/07 09:34:11;;;;;;;4.05;2.78;;;;;;;24.36;38.72;101859.47;5092561;28;20054;-72
2023/07/07 09:36:46;;;;;;;4.80;2.50;;;;;;;24.54;40.30;101851.25;5092623;28;20027;-73
2023/07/07 09:39:26;;;;;;;5.32;3.10;;;;;;;24.70;39.84;101852.13;5091936;28;20269;-59
2023/07/07 09:42:12;;;;;;;7.05;2.42;;;;;;;24.69;40.73;101841.44;5092014;28;20032;-59
2023/07/07 09:45:01;;;;;;;5.18;2.53;;;;;;;24.77;40.53;101844.19;5092320;28;20042;-58
2023/07/07 09:47:32;;;;;;;9.32;2.35;;;;;;;24.85;39.42;101837.91;5092203;28;20016;-58
2023/07/07 09:50:22;;;;;;;5.45;2.50;;;;;;;24.81;39.59;101842.84;5090341;28;20505;-59
2023/07/07 09:52:54;;;;;;;6.20;2.85;;;;;;;24.78;40.60;101836.88;5091810;28;20038;-59
2023/07/07 09:55:32;;;;;;;7.80;2.80;;;;;;;24.88;38.49;101832.13;5091986;28;20486;-58
2023/07/07 09:58:03;;;;;;;6.10;2.77;;;;;;;24.80;37.97;101824.81;5091811;28;20410;-58
2023/07/07 10:00:34;;;;;;;9.52;2.90;;;;;;;25.04;39.18;101842.22;5091605;28;20407;-59
2023/07/07 10:03:01;;;;;;;3.55;2.60;;;;;;;24.94;37.07;101834.19;5090517;28;20020;-58
2023/07/07 10:05:35;;;;;;;5.82;3.17;;;;;;;24.91;37.87;101831.78;5091232;28;20020;-58
2023/07/07 10:08:05;;;;;;;3.63;2.63;;;;;;;25.11;37.12;101824.19;5090210;28;20360;-59
2023/07/07 10:10:31;;;;;;;3.80;2.50;;;;;;;25.20;40.08;101822.34;5090611;28;20282;-59
2023/07/07 10:12:57;;;;;;;9.05;3.08;;;;;;;25.37;37.91;101826.78;5090242;28;20020;-67
2023/07/07 10:15:22;;;;;;;9.02;3.08;;;;;;;25.15;36.83;101820.16;5091584;28;20418;-58
2023/07/07 10:17:55;;;;;;;4.32;2.58;;;;;;;25.18;36.30;101816.22;5091535;28;20071;-58
2023/07/07 10:20:20;;;;;;;5.40;2.50;;;;;;;25.25;35.99;101817.25;5090775;28;20494;-58
2023/07/07 10:22:46;;;;;;;10.68;2.92;;;;;;;25.33;37.94;101809.94;5091486;28;20101;-58
2023/07/07 10:25:13;;;;;;;141.23;24.98;;;;;;;25.32;37.66;101808.22;5085389;28;20029;-58
2023/07/07 10:27:47;;;;;;;7.80;2.90;;;;;;;25.55;38.10;101815.72;5071461;28;20025;-58
2023/07/07 10:30:13;;;;;;;7.47;2.72;;;;;;;25.87;38.08;101814.00;5077960;28;20048;-58
2023/07/07 10:32:40;;;;;;;5.70;2.65;;;;;;;25.85;37.46;101808.69;5091464;28;20093;-58
2023/07/07 10:35:07;;;;;;;3.60;2.45;;;;;;;25.90;37.36;101813.66;5090974;28;20032;-58
2023/07/07 11:07:08;;;;;;;4.95;2.88;;;;;;;26.01;35.08;101796.91;5083341;27;1982002;-63
2023/07/07 11:10:04;;;;;;;4.40;2.90;;;;;;;26.07;34.92;101804.41;5127658;27;20024;-64
2023/07/07 11:12:53;;;;;;;5.28;2.92;;;;;;;26.18;35.73;101805.91;5091881;28;20050;-62
2023/07/07 11:15:20;;;;;;;;;;;;;;;26.18;35.00;101803.19;5108330;28;20035;-64
2023/07/07 11:17:55;;;;;;;5.68;3.10;;;;;;;26.19;34.19;101794.81;5130026;27;19969;-64
2023/07/07 11:20:27;;;;;;;4.53;2.90;;;;;;;26.33;33.04;101801.41;5110668;28;20039;-63
2023/07/07 11:23:04;;;;;;;5.28;3.58;;;;;;;26.08;31.53;101795.19;5122999;27;20028;-65
2023/07/07 11:25:38;;;;;;;6.15;2.70;;;;;;;26.30;32.66;101788.13;5129140;28;20027;-64
2023/07/07 11:28:20;;;;;;;5.32;3.08;;;;;;;26.62;33.15;101786.25;5132092;27;20019;-62
2023/07/07 11:31:23;;;;;;;6.97;2.83;;;;;;;26.64;32.35;101779.59;5123337;28;20039;-65
2023/07/07 11:34:08;;;;;;;5.78;3.03;;;;;;;26.75;33.12;101774.78;5090697;28;20027;-61
2023/07/07 11:36:52;;;;;;;7.60;3.22;;;;;;;26.82;33.06;101773.00;5109864;27;20103;-62
2023/07/07 11:39:53;;;;;;;5.00;3.20;;;;;;;26.85;31.98;101776.22;5104773;27;20050;-65
2023/07/07 11:42:34;;;;;;;5.57;3.10;;;;;;;26.77;32.98;101776.28;5069266;28;20089;-66
2023/07/07 11:45:29;;;;;;;4.07;2.78;;;;;;;26.82;34.31;101767.53;5108491;28;20027;-69
2023/07/07 11:48:05;;;;;;;4.32;3.10;;;;;;;26.83;31.35;101775.56;5090233;28;20047;-63
2023/07/07 11:50:31;;;;;;;5.97;3.17;;;;;;;26.84;30.03;101776.41;5119920;27;20060;-65
2023/07/07 11:53:05;;;;;;;5.68;3.28;;;;;;;26.83;30.87;101774.72;5111149;27;20032;-64
2023/07/07 11:55:51;;;;;;;6.55;3.30;;;;;;;27.08;32.92;101776.22;5108259;28;20016;-65
2023/07/07 11:58:32;;;;;;;4.55;2.55;;;;;;;27.13;31.75;101782.00;5097895;28;20020;-67
2023/07/07 12:01:13;;;;;;;4.28;2.80;;;;;;;27.05;30.20;101773.84;5108213;28;20373;-64
2023/07/07 12:03:48;;;;;;;4.90;2.60;;;;;;;27.10;30.22;101776.06;5100570;28;20153;-65
2023/07/07 12:06:26;;;;;;;6.50;2.80;;;;;;;27.27;29.89;101779.53;5107969;28;20090;-65
2023/07/07 12:09:00;;;;;;;7.05;3.22;;;;;;;27.33;30.50;101774.19;5110133;28;20031;-63
2023/07/07 12:11:33;;;;;;;7.22;3.45;;;;;;;27.15;30.08;101774.50;5113759;27;20474;-64
2023/07/07 12:14:11;;;;;;;11.27;3.22;;;;;;;27.32;31.07;101757.94;5108934;27;20032;-63
2023/07/07 12:16:41;;;;;;;5.90;3.03;;;;;;;27.37;31.16;101761.00;5084878;28;20032;-64
2023/07/07 12:19:12;;;;;;;6.05;3.00;;;;;;;27.40;31.12;101761.47;5081941;28;20454;-64
2023/07/07 12:21:39;;;;;;;3.40;2.80;;;;;;;27.39;31.64;101756.19;5095658;28;20478;-62
2023/07/07 12:24:38;;;;;;;5.05;2.85;;;;;;;27.44;31.10;101751.00;5075595;28;20024;-63
2023/07/07 12:27:34;;;;;;;6.75;3.03;;;;;;;27.48;32.89;101746.88;5094458;28;20028;-63
2023/07/07 12:30:01;;;;;;;4.03;2.60;;;;;;;27.54;29.93;101746.13;5096220;28;20088;-63
2023/07/07 12:32:27;;;;;;;5.13;3.20;;;;;;;27.61;30.32;101736.13;5095882;27;20027;-63
2023/07/07 12:35:06;;;;;;;5.32;2.60;;;;;;;27.67;30.22;101745.47;5114710;27;20601;-63
2023/07/07 12:37:34;;;;;;;4.95;3.28;;;;;;;27.76;31.14;101748.97;5096593;28;20107;-64
2023/07/07 12:40:05;;;;;;;6.43;2.90;;;;;;;27.67;30.15;101750.94;5112529;27;20027;-66
2023/07/07 12:42:32;;;;;;;4.05;2.85;;;;;;;27.77;29.40;101746.06;5114572;28;20031;-63
2023/07/07 12:45:16;;;;;;;5.10;2.92;;;;;;;27.78;29.77;101744.16;5095879;28;20407;-65
2023/07/07 12:47:42;;;;;;;5.10;3.05;;;;;;;27.76;28.67;101730.66;5096333;28;20051;-64
2023/07/07 12:50:30;;;;;;;5.32;3.13;;;;;;;27.73;30.82;101739.25;5114370;28;20065;-64
2023/07/07 12:53:05;;;;;;;8.60;3.43;;;;;;;27.93;30.91;101728.63;5097677;28;20559;-64
2023/07/07 12:55:37;;;;;;;5.00;3.38;;;;;;;27.84;30.31;101738.81;5113068;28;20394;-63
2023/07/07 12:58:05;;;;;;;5.88;2.97;;;;;;;27.99;30.72;101732.50;5115138;27;20545;-64
2023/07/07 13:00:39;;;;;;;6.20;3.08;;;;;;;28.11;30.27;101730.13;5104867;28;20023;-61
2023/07/07 13:03:18;;;;;;;8.13;3.40;;;;;;;27.87;28.84;101731.28;5093384;28;20020;-61
2023/07/07 13:05:49;;;;;;;4.03;3.00;;;;;;;27.97;30.03;101723.63;5099837;27;20074;-61
2023/07/07 13:08:34;;;;;;;5.68;3.50;;;;;;;27.96;30.56;101714.56;5114580;27;20461;-61
2023/07/07 13:11:16;;;;;;;4.07;2.95;;;;;;;27.88;30.02;101711.94;5111322;27;20055;-61
2023/07/07 13:13:44;;;;;;;7.70;3.13;;;;;;;28.01;29.06;101705.81;5115337;27;20023;-61
2023/07/07 13:16:12;;;;;;;5.60;3.10;;;;;;;28.06;30.62;101701.47;5114074;28;20107;-62
2023/07/07 13:18:37;;;;;;;5.88;3.15;;;;;;;28.06;29.36;101690.53;5096466;27;20036;-61
2023/07/07 13:21:04;;;;;;;5.22;3.28;;;;;;;28.16;29.86;101703.03;5109635;28;20436;-61
2023/07/07 13:23:38;;;;;;;4.30;3.08;;;;;;;28.12;28.38;101708.06;5112949;28;20551;-61
2023/07/07 13:26:03;;;;;;;5.43;3.33;;;;;;;28.07;28.84;101700.41;5113505;28;20494;-61
2023/07/07 13:28:29;;;;;;;6.53;3.67;;;;;;;28.17;28.47;101696.53;5113523;27;20031;-61
2023/07/07 13:30:57;;;;;;;8.02;3.03;;;;;;;28.18;28.14;101707.28;5104478;27;20030;-61
2023/07/07 13:33:26;;;;;;;5.78;3.85;;;;;;;28.24;26.82;101706.50;5106432;27;20039;-62
2023/07/07 13:35:55;;;;;;;6.40;3.70;;;;;;;28.26;27.51;101695.38;5113512;28;20051;-61
2023/07/07 13:38:25;;;;;;;7.97;3.25;;;;;;;28.21;26.90;101693.22;5094260;28;20367;-62
2023/07/07 13:40:51;;;;;;;4.55;3.50;;;;;;;28.24;28.24;101675.56;5079958;27;20028;-62
2023/07/07 13:43:24;;;;;;;7.38;3.80;;;;;;;28.42;29.54;101689.69;5101604;28;20080;-61
2023/07/07 13:45:52;;;;;;;6.40;3.45;;;;;;;28.31;26.83;101676.47;5101670;28;20024;-61
2023/07/07 13:48:23;;;;;;;6.68;3.88;;;;;;;28.35;27.91;101685.16;5083802;28;20035;-62
2023/07/07 13:50:51;;;;;;;8.63;3.53;;;;;;;28.45;27.02;101683.00;5099017;27;20051;-61
2023/07/07 13:53:18;;;;;;;6.13;4.00;;;;;;;28.45;26.73;101678.34;5092182;28;20034;-61
2023/07/07 13:55:47;;;;;;;4.43;3.15;;;;;;;28.50;26.72;101684.09;5085086;28;20034;-61
2023/07/07 13:58:19;;;;;;;5.85;3.75;;;;;;;28.53;26.13;101685.56;5112519;28;20016;-62
2023/07/07 14:00:55;;;;;;;5.15;3.58;;;;;;;28.30;25.63;101680.28;5096139;28;20024;-61
2023/07/07 14:03:21;;;;;;;5.50;3.95;;;;;;;28.37;25.40;101685.81;5093117;28;20032;-62
2023/07/07 14:05:48;;;;;;;5.10;3.63;;;;;;;28.38;24.75;101677.38;5076154;28;20043;-61
2023/07/07 14:08:18;;;;;;;4.63;3.60;;;;;;;28.35;25.32;101677.78;5074674;28;20035;-62
2023/07/07 14:10:47;;;;;;;4.90;3.75;;;;;;;28.34;26.26;101680.72;5111534;27;20075;-61
2023/07/07 14:13:19;;;;;;;6.15;3.80;;;;;;;28.29;24.86;101676.66;5111343;28;20573;-61
2023/07/07 14:15:53;;;;;;;6.30;3.78;;;;;;;28.43;26.70;101672.22;5112123;27;20095;-61
2023/07/07 14:18:24;;;;;;;9.48;3.88;;;;;;;28.48;25.64;101672.50;5092288;28;20388;-61
2023/07/07 14:20:52;;;;;;;9.30;3.90;;;;;;;28.57;25.18;101675.94;5111687;28;20027;-61
2023/07/07 14:23:18;;;;;;;5.10;4.00;;;;;;;28.66;25.53;101672.03;5112038;28;20418;-61
2023/07/07 14:25:48;;;;;;;5.72;4.15;;;;;;;28.72;24.99;101676.72;5112601;28;20015;-62
2023/07/07 14:28:20;;;;;;;6.78;4.03;;;;;;;28.68;27.68;101669.97;5112336;28;20024;-62
2023/07/07 14:30:54;;;;;;;6.10;4.18;;;;;;;28.73;25.01;101674.81;5108777;27;20031;-61
2023/07/07 14:33:26;;;;;;;6.35;4.10;;;;;;;28.73;26.85;101667.44;5095985;28;20039;-61
2023/07/07 14:35:57;;;;;;;7.28;3.92;;;;;;;28.80;25.09;101674.91;5092140;28;20038;-61
2023/07/07 14:38:28;;;;;;;8.57;3.95;;;;;;;28.75;24.70;101675.50;5073615;28;20020;-61
2023/07/07 14:40:55;;;;;;;5.90;4.25;;;;;;;28.67;26.33;101681.94;5111802;28;20475;-61
2023/07/07 14:43:26;;;;;;;6.25;4.03;;;;;;;28.65;26.18;101674.94;5102122;28;20085;-62
2023/07/07 14:46:03;;;;;;;5.30;4.25;;;;;;;28.61;25.66;101659.97;5111790;28;20026;-61
2023/07/07 14:48:59;;;;;;;5.35;3.53;;;;;;;28.68;25.65;101664.47;5111493;28;20076;-61
2023/07/07 14:51:33;;;;;;;5.70;4.00;;;;;;;28.68;26.85;101667.22;5094805;28;20040;-61
2023/07/07 14:54:01;;;;;;;5.03;3.88;;;;;;;28.67;25.61;101672.88;5107072;27;20027;-61
2023/07/07 14:56:32;;;;;;;6.97;3.83;;;;;;;28.72;25.52;101665.78;5101349;28;20011;-61
2023/07/07 14:59:03;;;;;;;5.25;4.00;;;;;;;28.64;25.55;101667.78;5099416;28;20063;-61
2023/07/07 15:01:31;;;;;;;5.22;4.00;;;;;;;28.56;24.64;101668.78;5111195;28;20496;-61
2023/07/07 15:03:58;;;;;;;7.30;4.07;;;;;;;28.57;24.93;101664.16;5111137;28;20032;-61
2023/07/07 15:06:24;;;;;;;5.43;4.40;;;;;;;28.59;24.90;101664.78;5093853;28;20067;-61
2023/07/07 15:08:51;;;;;;;7.03;4.50;;;;;;;28.57;25.37;101661.41;5089702;28;20069;-61
2023/07/07 15:11:24;;;;;;;6.95;4.57;;;;;;;28.64;26.39;101657.69;5096418;28;20037;-62
2023/07/07 15:13:50;;;;;;;5.95;4.70;;;;;;;28.60;25.72;101659.13;5109809;28;20462;-61
2023/07/07 15:16:21;;;;;;;7.78;4.30;;;;;;;28.68;26.82;101656.28;5111381;28;20092;-61
2023/07/07 15:18:46;;;;;;;5.22;4.20;;;;;;;28.69;26.11;101657.09;5103366;28;20032;-61
2023/07/07 15:21:20;;;;;;;6.20;4.28;;;;;;;28.53;25.13;101667.28;5098918;28;20031;-61
2023/07/07 15:23:46;;;;;;;5.10;4.00;;;;;;;28.53;26.92;101661.81;5091123;28;20020;-61
2023/07/07 15:26:20;;;;;;;4.63;3.95;;;;;;;28.49;25.78;101657.75;5073291;28;20391;-61
2023/07/07 15:28:48;;;;;;;8.18;4.57;;;;;;;28.41;25.60;101646.94;5093284;28;20367;-61
2023/07/07 15:31:19;;;;;;;6.68;3.90;;;;;;;28.36;25.80;101646.66;5112858;28;20031;-61
2023/07/07 15:33:45;;;;;;;5.50;4.25;;;;;;;28.33;25.16;101652.53;5109009;28;20464;-62
2023/07/07 15:36:11;;;;;;;6.45;4.43;;;;;;;28.21;26.19;101646.72;5092540;28;20360;-61
2023/07/07 15:38:43;;;;;;;7.70;4.15;;;;;;;28.33;26.43;101646.22;5090742;28;20077;-61
2023/07/07 15:41:13;;;;;;;5.35;3.90;;;;;;;28.31;26.48;101643.66;5091315;28;20080;-61
2023/07/07 15:43:39;;;;;;;5.95;4.32;;;;;;;28.24;25.28;101638.13;5089913;28;20024;-61
2023/07/07 15:46:12;;;;;;;5.30;4.35;;;;;;;28.31;26.38;101636.28;5090008;28;20035;-61
2023/07/07 15:48:40;;;;;;;6.82;4.13;;;;;;;28.33;27.10;101638.00;5091720;28;20028;-61
2023/07/07 15:51:20;;;;;;;7.47;4.40;;;;;;;28.36;28.06;101632.13;5091886;28;20079;-61
2023/07/07 15:53:48;;;;;;;7.72;4.28;;;;;;;28.41;27.76;101633.25;5113250;28;20114;-61
2023/07/07 15:56:16;;;;;;;7.80;4.20;;;;;;;28.47;28.08;101634.34;5112027;28;20027;-61
2023/07/07 15:58:41;;;;;;;8.18;4.40;;;;;;;28.40;27.51;101623.31;5095271;28;20020;-61
2023/07/07 16:01:08;;;;;;;5.55;4.15;;;;;;;28.45;28.57;101628.25;5097042;28;20118;-61
2023/07/07 16:03:34;;;;;;;10.85;4.32;;;;;;;28.40;28.03;101619.75;5115613;28;20034;-61
2023/07/07 16:06:01;;;;;;;8.10;4.25;;;;;;;28.36;27.81;101615.72;5112913;28;20043;-62
2023/07/07 16:08:27;;;;;;;5.53;4.00;;;;;;;28.42;27.09;101615.81;5113555;28;20553;-61
2023/07/07 16:10:52;;;;;;;4.07;3.65;;;;;;;28.18;27.97;101580.56;5115256;28;20034;-61
2023/07/07 16:13:17;;;;;;;8.68;4.10;;;;;;;28.31;27.47;101605.34;5114992;28;20398;-61
2023/07/07 16:15:43;;;;;;;7.60;4.15;;;;;;;28.34;28.13;101610.41;5104737;28;20032;-61
2023/07/07 16:18:08;;;;;;;7.57;3.53;;;;;;;28.27;28.31;101606.78;5094854;28;20099;-62
2023/07/07 16:20:36;;;;;;;6.50;4.15;;;;;;;28.31;28.22;101603.44;5076498;28;20471;-61
2023/07/07 16:23:02;;;;;;;5.43;4.18;;;;;;;28.36;29.72;101596.56;5094281;28;20037;-61
2023/07/07 16:25:28;;;;;;;6.20;3.78;;;;;;;28.31;28.07;101589.75;5098872;28;20374;-61
2023/07/07 16:27:54;;;;;;;6.53;4.05;;;;;;;28.27;28.87;101590.38;5114787;28;20023;-61
2023/07/07 16:30:26;;;;;;;6.63;4.40;;;;;;;28.24;27.04;101599.81;5114853;28;20027;-61
2023/07/07 16:32:51;;;;;;;7.68;4.00;;;;;;;28.26;27.52;101584.03;5115003;28;20023;-61
2023/07/07 16:35:17;;;;;;;7.72;4.10;;;;;;;28.18;28.65;101588.78;5106946;28;20233;-61
2023/07/07 16:37:43;;;;;;;6.40;4.15;;;;;;;28.22;29.51;101588.19;5101643;28;20498;-61
2023/07/07 16:40:30;;;;;;;5.18;3.80;;;;;;;28.15;28.63;101594.63;5093900;28;20024;-61
2023/07/07 16:42:55;;;;;;;7.70;4.18;;;;;;;28.04;28.35;101588.66;5094313;28;20020;-61
2023/07/07 16:45:24;;;;;;;7.10;4.35;;;;;;;28.06;28.43;101588.44;5075859;28;20035;-61
2023/07/07 16:47:49;;;;;;;5.28;4.00;;;;;;;28.05;27.12;101589.50;5086131;28;20559;-61
2023/07/07 16:50:21;;;;;;;11.40;4.40;;;;;;;28.06;27.63;101582.97;5095943;28;20051;-61
2023/07/07 16:52:47;;;;;;;5.95;4.40;;;;;;;27.96;27.67;101579.72;5114315;28;20026;-61
2023/07/07 16:55:12;;;;;;;8.20;3.90;;;;;;;27.96;27.15;101574.25;5103825;28;20028;-61
2023/07/07 16:57:38;;;;;;;8.48;4.18;;;;;;;27.93;28.20;101575.47;5078586;28;20118;-61
2023/07/07 17:00:12;;;;;;;10.20;4.20;;;;;;;27.92;27.96;101579.28;5114324;28;20081;-61
2023/07/07 17:02:37;;;;;;;7.95;4.47;;;;;;;27.90;28.41;101581.34;5114452;28;20027;-61
2023/07/07 17:05:06;;;;;;;8.13;4.07;;;;;;;27.88;27.93;101571.63;5112006;28;20042;-61
2023/07/07 17:07:31;;;;;;;;;;;;;;;27.93;28.01;101566.44;5101002;28;20035;-61
2023/07/07 17:09:56;;;;;;;5.60;4.60;;;;;;;27.82;27.73;101554.94;5093266;28;20322;-62
2023/07/07 17:12:24;;;;;;;5.80;4.03;;;;;;;27.91;26.87;101569.34;5093919;28;20099;-61
2023/07/07 17:14:49;;;;;;;5.80;4.65;;;;;;;27.87;27.72;101564.47;5093557;28;20051;-61
2023/07/07 17:17:15;;;;;;;8.45;4.28;;;;;;;27.78;27.52;101571.91;5076138;28;20521;-61
2023/07/07 17:19:40;;;;;;;7.85;4.53;;;;;;;27.73;28.28;101567.00;5075375;28;20042;-61
2023/07/07 17:22:08;;;;;;;7.30;4.30;;;;;;;27.63;28.04;101572.78;5093337;28;20059;-61
2023/07/07 17:24:33;;;;;;;5.90;4.60;;;;;;;27.67;29.63;101567.78;5095508;28;20020;-61
2023/07/07 17:26:58;;;;;;;7.78;4.72;;;;;;;27.64;29.50;101568.16;5095355;28;20030;-61
2023/07/07 17:29:24;;;;;;;6.45;4.25;;;;;;;27.64;28.15;101563.53;5113521;28;20051;-61
2023/07/07 17:31:51;;;;;;;8.50;4.43;;;;;;;27.65;29.63;101567.16;5113604;28;20364;-61
2023/07/07 17:34:17;;;;;;;8.65;4.43;;;;;;;27.66;28.12;101562.53;5113479;28;20390;-61
2023/07/07 17:36:42;;;;;;;8.23;5.03;;;;;;;27.69;27.62;101556.66;5111697;28;20102;-61
2023/07/07 17:39:14;;;;;;;9.23;4.68;;;;;;;27.67;28.95;101558.75;5113601;28;20103;-61
2023/07/07 17:41:39;;;;;;;6.47;4.65;;;;;;;27.61;28.53;101561.19;5095957;28;20019;-61
2023/07/07 17:44:07;;;;;;;9.20;4.70;;;;;;;27.55;27.26;101547.47;5112050;28;20030;-61
2023/07/07 17:46:41;;;;;;;6.75;4.30;;;;;;;27.54;27.98;101554.81;5092939;28;20028;-61
2023/07/07 17:49:10;;;;;;;6.55;4.45;;;;;;;27.54;27.54;101548.50;5092838;28;20024;-61
2023/07/07 17:51:35;;;;;;;;;;;;;;;27.59;28.25;101560.56;5093681;28;20051;-61
2023/07/07 17:54:01;;;;;;;5.97;4.35;;;;;;;27.43;29.46;101552.56;5074224;28;19950;-61
2023/07/07 17:56:32;;;;;;;7.88;4.45;;;;;;;27.40;28.98;101547.47;5075583;28;20024;-62
2023/07/07 17:58:59;;;;;;;7.18;3.83;;;;;;;27.37;28.44;101556.06;5092583;28;20047;-61
2023/07/07 18:01:28;;;;;;;8.73;4.47;;;;;;;27.38;27.72;101555.00;5092821;28;20708;-61
2023/07/07 18:03:53;;;;;;;6.45;4.13;;;;;;;27.31;28.14;101544.00;5092774;28;20356;-61
2023/07/07 18:06:22;;;;;;;7.28;3.95;;;;;;;27.21;29.24;101551.66;5076492;28;20036;-61
2023/07/07 18:08:51;;;;;;;7.25;3.55;;;;;;;27.11;28.88;101554.63;5112685;28;20031;-62
2023/07/07 18:11:23;;;;;;;4.50;3.63;;;;;;;27.08;29.88;101549.53;5112971;28;20027;-61
2023/07/07 18:13:48;;;;;;;7.05;4.20;;;;;;;26.95;29.96;101552.94;5112868;28;20036;-61
2023/07/07 18:16:20;;;;;;;8.45;4.13;;;;;;;26.84;29.96;101547.94;5112532;28;20359;-61
2023/07/07 18:18:46;;;;;;;10.05;4.25;;;;;;;26.81;31.84;101552.94;5092657;28;20397;-61
2023/07/07 18:21:16;;;;;;;5.25;3.75;;;;;;;26.75;31.02;101546.31;5094847;28;20106;-61
2023/07/07 18:23:41;;;;;;;7.57;3.97;;;;;;;26.69;32.48;101550.66;5110672;28;20382;-61
2023/07/07 18:26:18;;;;;;;6.57;4.03;;;;;;;26.62;32.14;101552.44;5074046;28;20035;-61
2023/07/07 18:28:46;;;;;;;7.43;3.85;;;;;;;26.63;32.19;101547.81;5092289;28;20024;-61
2023/07/07 18:31:21;;;;;;;5.22;3.83;;;;;;;26.56;32.26;101547.72;5074472;28;20020;-61
2023/07/07 18:33:47;;;;;;;5.68;3.92;;;;;;;26.53;33.13;101542.59;5092004;28;20406;-61
2023/07/07 18:36:12;;;;;;;5.43;3.97;;;;;;;26.43;32.58;101537.38;5075032;28;20024;-61
2023/07/07 18:38:37;;;;;;;9.70;4.25;;;;;;;26.43;34.14;101551.03;5073424;28;20020;-61
2023/07/07 18:41:12;;;;;;;7.45;4.00;;;;;;;26.39;33.85;101554.31;5092165;28;20417;-61